createdAt,value
2019-04-05T00:00:29.835Z,98.59
2019-04-05T00:01:29.827Z,97.92
2019-04-05T00:02:29.821Z,98.4
2019-04-05T00:03:29.809Z,97.83
2019-04-05T00:04:29.802Z,97.83
2019-04-05T00:05:29.807Z,97.92
2019-04-05T00:06:29.789Z,98.02
2019-04-05T00:07:29.780Z,98.31
2019-04-05T00:08:29.774Z,98.02
2019-04-05T00:09:29.768Z,97.92
2019-04-05T00:10:29.767Z,98.21
2019-04-05T00:11:29.812Z,97.92
2019-04-05T00:12:29.747Z,97.92
2019-04-05T00:13:29.494Z,98.21
2019-04-05T00:14:29.735Z,97.83
2019-04-05T00:15:29.728Z,98.21
2019-04-05T00:16:29.499Z,97.92
2019-04-05T00:17:29.716Z,98.4
2019-04-05T00:18:29.723Z,98.02
2019-04-05T00:19:29.705Z,98.21
2019-04-05T00:20:29.770Z,97.36
2019-04-05T00:21:29.681Z,97.07
2019-04-05T00:22:29.687Z,96.69
2019-04-05T00:23:29.669Z,96.69
2019-04-05T00:24:29.670Z,96.55
2019-04-05T00:25:29.656Z,96.41
2019-04-05T00:26:29.665Z,96.64
2019-04-05T00:27:29.652Z,96.17
2019-04-05T00:28:29.378Z,96.64
2019-04-05T00:29:29.629Z,96.41
2019-04-05T00:30:29.624Z,96.36
2019-04-05T00:31:29.634Z,95.94
2019-04-05T00:32:29.606Z,96.36
2019-04-05T00:33:29.354Z,96.55
2019-04-05T00:34:29.593Z,96.55
2019-04-05T00:35:29.365Z,96.22
2019-04-05T00:36:29.593Z,96.36
2019-04-05T00:37:29.318Z,96.64
2019-04-05T00:38:29.564Z,96.26
2019-04-05T00:39:29.305Z,96.26
2019-04-05T00:40:29.544Z,95.98
2019-04-05T00:41:29.295Z,95.7
2019-04-05T00:42:29.295Z,96.36
2019-04-05T00:43:29.282Z,96.45
2019-04-05T00:44:29.274Z,96.36
2019-04-05T00:45:31.136Z,95.98
2019-04-05T00:46:29.506Z,96.17
2019-04-05T00:47:29.492Z,96.17
2019-04-05T00:48:29.239Z,96.26
2019-04-05T00:49:35.240Z,96.36
2019-04-05T00:50:29.476Z,96.36
2019-04-05T00:51:29.470Z,96.26
2019-04-05T00:52:29.227Z,96.26
2019-04-05T00:53:29.216Z,96.36
2019-04-05T00:54:29.207Z,96.93
2019-04-05T00:55:29.205Z,96.64
2019-04-05T00:56:29.426Z,96.45
2019-04-05T00:57:29.425Z,97.12
2019-04-05T00:58:29.409Z,97.5
2019-04-05T00:59:29.154Z,97.69
2019-04-05T01:00:29.402Z,98.26
2019-04-05T01:01:29.396Z,98.07
2019-04-05T01:02:29.404Z,98.21
2019-04-05T01:03:29.130Z,97.83
2019-04-05T01:04:29.364Z,97.22
2019-04-05T01:05:29.361Z,97.17
2019-04-05T01:06:29.365Z,96.45
2019-04-05T01:07:29.108Z,96.5
2019-04-05T01:08:29.109Z,96.69
2019-04-05T01:09:29.088Z,96.22
2019-04-05T01:10:29.334Z,96.5
2019-04-05T01:11:29.070Z,96.6
2019-04-05T01:12:29.311Z,95.36
2019-04-05T01:13:29.075Z,95.75
2019-04-05T01:14:29.306Z,95.75
2019-04-05T01:15:40.140Z,95.46
2019-04-05T01:16:29.048Z,95.94
2019-04-05T01:17:29.029Z,95.46
2019-04-05T01:18:29.279Z,95.65
2019-04-05T01:19:29.017Z,95.46
2019-04-05T01:20:29.312Z,95.51
2019-04-05T01:21:29.256Z,96.17
2019-04-05T01:22:28.989Z,96.41
2019-04-05T01:23:29.242Z,96.41
2019-04-05T01:24:29.225Z,96.6
2019-04-05T01:25:29.225Z,96.17
2019-04-05T01:26:29.227Z,96.55
2019-04-05T01:27:29.223Z,96.17
2019-04-05T01:28:29.204Z,96.93
2019-04-05T01:29:29.190Z,96.74
2019-04-05T01:30:29.189Z,96.55
2019-04-05T01:31:28.933Z,97.02
2019-04-05T01:32:29.166Z,97.02
2019-04-05T01:33:29.159Z,97.22
2019-04-05T01:34:28.917Z,96.93
2019-04-05T01:35:28.950Z,97.41
2019-04-05T01:36:29.192Z,97.31
2019-04-05T01:37:28.906Z,97.31
2019-04-05T01:38:29.131Z,97.07
2019-04-05T01:39:29.120Z,97.36
2019-04-05T01:40:28.864Z,97.31
2019-04-05T01:41:29.127Z,97.83
2019-04-05T01:42:29.099Z,97.17
2019-04-05T01:43:28.842Z,97.36
2019-04-05T01:44:28.832Z,97.36
2019-04-05T01:45:28.830Z,97.31
2019-04-05T01:46:28.818Z,97.36
2019-04-05T01:47:28.889Z,97.27
2019-04-05T01:48:28.805Z,97.74
2019-04-05T01:49:28.816Z,96.6
2019-04-05T01:50:29.065Z,96.79
2019-04-05T01:51:29.046Z,96.5
2019-04-05T01:52:29.038Z,96.36
2019-04-05T01:53:29.031Z,96.88
2019-04-05T01:54:31.525Z,97.6
2019-04-05T01:55:28.997Z,97.31
2019-04-05T01:56:28.999Z,97.27
2019-04-05T01:57:28.988Z,97.41
2019-04-05T01:58:28.733Z,96.74
2019-04-05T01:59:28.975Z,96.74
2019-04-05T02:00:28.975Z,96.79
2019-04-05T02:01:28.963Z,96.6
2019-04-05T02:02:28.709Z,96.69
2019-04-05T02:03:28.707Z,96.64
2019-04-05T02:04:28.694Z,96.83
2019-04-05T02:05:28.935Z,96.6
2019-04-05T02:06:28.691Z,96.79
2019-04-05T02:07:28.923Z,96.22
2019-04-05T02:08:28.910Z,95.75
2019-04-05T02:09:28.669Z,95.75
2019-04-05T02:10:28.913Z,95.22
2019-04-05T02:11:28.899Z,95.08
2019-04-05T02:12:28.882Z,95.12
2019-04-05T02:13:28.635Z,94.89
2019-04-05T02:14:28.865Z,95.03
2019-04-05T02:15:28.619Z,95.12
2019-04-05T02:16:28.858Z,95.22
2019-04-05T02:17:28.607Z,95.22
2019-04-05T02:18:28.844Z,94.7
2019-04-05T02:19:28.828Z,95.17
2019-04-05T02:20:28.974Z,95.17
2019-04-05T02:21:28.569Z,95.12
2019-04-05T02:22:28.827Z,95.03
2019-04-05T02:23:28.551Z,95.27
2019-04-05T02:24:28.794Z,94.51
2019-04-05T02:25:28.550Z,95.31
2019-04-05T02:26:28.538Z,95.12
2019-04-05T02:27:28.771Z,95.03
2019-04-05T02:28:28.537Z,95.7
2019-04-05T02:29:28.515Z,95.41
2019-04-05T02:30:28.755Z,95.79
2019-04-05T02:31:28.503Z,95.41
2019-04-05T02:32:28.496Z,95.7
2019-04-05T02:33:28.735Z,96.74
2019-04-05T02:34:28.721Z,96.74
2019-04-05T02:35:28.729Z,96.26
2019-04-05T02:36:28.704Z,96.45
2019-04-05T02:37:28.713Z,96.17
2019-04-05T02:38:28.450Z,95.98
2019-04-05T02:39:28.689Z,96.36
2019-04-05T02:40:28.697Z,96.36
2019-04-05T02:41:28.675Z,96.36
2019-04-05T02:42:28.676Z,96.17
2019-04-05T02:43:28.407Z,96.93
2019-04-05T02:44:28.645Z,96.55
2019-04-05T02:45:28.635Z,96.36
2019-04-05T02:46:28.641Z,95.7
2019-04-05T02:47:28.377Z,96.26
2019-04-05T02:48:28.411Z,96.26
2019-04-05T02:49:28.632Z,96.83
2019-04-05T02:50:29.416Z,96.45
2019-04-05T02:51:28.588Z,96.26
2019-04-05T02:52:28.586Z,96.55
2019-04-05T02:53:28.571Z,96.74
2019-04-05T02:54:28.576Z,96.55
2019-04-05T02:55:28.566Z,96.64
2019-04-05T02:56:28.557Z,97.31
2019-04-05T02:57:28.296Z,97.02
2019-04-05T02:58:28.547Z,97.41
2019-04-05T02:59:28.621Z,97.31
2019-04-05T03:00:28.532Z,98.07
2019-04-05T03:01:28.279Z,97.69
2019-04-05T03:02:28.267Z,98.73
2019-04-05T03:03:28.521Z,98.54
2019-04-05T03:04:28.516Z,98.73
2019-04-05T03:05:28.503Z,98.45
2019-04-05T03:06:28.487Z,99.11
2019-04-05T03:07:28.227Z,98.64
2019-04-05T03:08:28.237Z,98.16
2019-04-05T03:09:28.469Z,98.26
2019-04-05T03:10:28.446Z,98.54
2019-04-05T03:11:28.437Z,98.26
2019-04-05T03:12:28.434Z,99.4
2019-04-05T03:13:28.434Z,99.97
2019-04-05T03:14:28.179Z,99.87
2019-04-05T03:15:28.179Z,99.99
2019-04-05T03:16:42.517Z,99.99
2019-04-05T03:17:28.393Z,99.99
2019-04-05T03:18:28.523Z,99.99
2019-04-05T03:19:28.139Z,99.99
2019-04-05T03:20:28.518Z,99.49
2019-04-05T03:21:28.400Z,98.73
2019-04-05T03:22:28.367Z,98.73
2019-04-05T03:23:28.351Z,99.87
2019-04-05T03:24:28.377Z,99.4
2019-04-05T03:25:28.099Z,99.77
2019-04-05T03:26:28.342Z,99.97
2019-04-05T03:27:28.328Z,99.99
2019-04-05T03:28:28.319Z,99.99
2019-04-05T03:29:28.311Z,99.99
2019-04-05T03:30:28.322Z,99.99
2019-04-05T03:31:28.662Z,99.99
2019-04-05T03:32:28.307Z,99.99
2019-04-05T03:33:28.327Z,99.99
2019-04-05T03:34:28.301Z,99.99
2019-04-05T03:35:28.276Z,99.99
2019-04-05T03:36:28.007Z,99.99
2019-04-05T03:37:28.005Z,99.99
2019-04-05T03:38:27.985Z,99.99
2019-04-05T03:39:28.325Z,99.99
2019-04-05T03:40:28.221Z,99.99
2019-04-05T03:41:27.971Z,99.99
2019-04-05T03:42:28.222Z,99.99
2019-04-05T03:43:28.206Z,99.99
2019-04-05T03:44:28.201Z,99.99
2019-04-05T03:45:28.201Z,99.99
2019-04-05T03:46:28.194Z,99.99
2019-04-05T03:47:28.191Z,99.99
2019-04-05T03:48:28.162Z,99.99
2019-04-05T03:49:27.905Z,99.99
2019-04-05T03:50:27.902Z,99.99
2019-04-05T03:51:28.172Z,99.99
2019-04-05T03:52:28.161Z,99.99
2019-04-05T03:53:27.880Z,99.99
2019-04-05T03:54:27.873Z,99.99
2019-04-05T03:55:28.109Z,99.99
2019-04-05T03:56:28.107Z,99.99
2019-04-05T03:57:28.091Z,99.99
2019-04-05T03:58:28.110Z,99.99
2019-04-05T03:59:28.091Z,99.99
2019-04-05T04:00:28.108Z,99.99
2019-04-05T04:01:28.073Z,99.99
2019-04-05T04:02:27.819Z,99.99
2019-04-05T04:03:28.057Z,99.99
2019-04-05T04:04:27.802Z,99.99
2019-04-05T04:05:28.042Z,99.99
2019-04-05T04:06:28.066Z,99.99
2019-04-05T04:07:28.036Z,99.99
2019-04-05T04:08:28.023Z,99.99
2019-04-05T04:09:28.024Z,99.99
2019-04-05T04:10:27.762Z,99.99
2019-04-05T04:11:27.992Z,99.99
2019-04-05T04:12:27.997Z,99.99
2019-04-05T04:13:27.982Z,99.99
2019-04-05T04:14:27.983Z,99.99
2019-04-05T04:15:27.961Z,99.99
2019-04-05T04:16:27.724Z,99.99
2019-04-05T04:17:27.948Z,99.99
2019-04-05T04:18:27.739Z,99.99
2019-04-05T04:19:27.684Z,99.99
2019-04-05T04:20:27.673Z,99.99
2019-04-05T04:21:27.913Z,99.99
2019-04-05T04:22:27.913Z,99.99
2019-04-05T04:23:27.923Z,99.99
2019-04-05T04:24:27.891Z,99.99
2019-04-05T04:25:27.899Z,99.99
2019-04-05T04:26:27.881Z,99.99
2019-04-05T04:27:27.873Z,99.99
2019-04-05T04:28:27.875Z,99.99
2019-04-05T04:29:27.867Z,99.99
2019-04-05T04:30:27.842Z,99.99
2019-04-05T04:31:27.853Z,99.99
2019-04-05T04:32:27.834Z,99.99
2019-04-05T04:33:27.577Z,99.99
2019-04-05T04:34:27.837Z,99.99
2019-04-05T04:35:27.816Z,99.99
2019-04-05T04:36:27.554Z,99.99
2019-04-05T04:37:27.797Z,99.99
2019-04-05T04:38:27.539Z,99.99
2019-04-05T04:39:27.777Z,99.99
2019-04-05T04:40:27.765Z,99.99
2019-04-05T04:41:30.069Z,99.99
2019-04-05T04:42:27.763Z,99.99
2019-04-05T04:43:27.760Z,99.99
2019-04-05T04:44:27.497Z,99.99
2019-04-05T04:45:27.487Z,99.99
2019-04-05T04:46:27.732Z,99.99
2019-04-05T04:47:29.745Z,99.99
2019-04-05T04:48:27.723Z,99.99
2019-04-05T04:49:27.467Z,99.99
2019-04-05T04:50:27.693Z,99.99
2019-04-05T04:51:27.932Z,99.99
2019-04-05T04:52:27.682Z,99.99
2019-04-05T04:53:27.674Z,99.99
2019-04-05T04:54:27.422Z,99.99
2019-04-05T04:55:27.668Z,99.99
2019-04-05T04:56:27.422Z,99.99
2019-04-05T04:57:27.641Z,99.99
2019-04-05T04:58:27.637Z,99.99
2019-04-05T04:59:27.637Z,99.99
2019-04-05T05:00:27.623Z,99.99
2019-04-05T05:01:27.611Z,99.99
2019-04-05T05:02:27.617Z,99.99
2019-04-05T05:03:27.605Z,99.99
2019-04-05T05:04:27.595Z,99.99
2019-04-05T05:05:27.591Z,99.99
2019-04-05T05:06:27.576Z,99.99
2019-04-05T05:07:27.562Z,99.99
2019-04-05T05:08:27.571Z,99.99
2019-04-05T05:09:27.548Z,99.99
2019-04-05T05:10:27.551Z,99.99
2019-04-05T05:11:27.289Z,99.99
2019-04-05T05:12:27.285Z,99.99
2019-04-05T05:13:27.272Z,99.99
2019-04-05T05:14:27.533Z,99.99
2019-04-05T05:15:29.814Z,99.99
2019-04-05T05:16:27.497Z,99.99
2019-04-05T05:17:40.132Z,99.99
2019-04-05T05:18:27.505Z,99.99
2019-04-05T05:19:27.230Z,99.99
2019-04-05T05:20:27.220Z,99.99
2019-04-05T05:21:28.281Z,99.99
2019-04-05T05:22:27.236Z,99.99
2019-04-05T05:23:27.196Z,99.99
2019-04-05T05:24:27.602Z,99.99
2019-04-05T05:25:27.430Z,99.99
2019-04-05T05:26:27.190Z,99.99
2019-04-05T05:27:27.430Z,99.99
2019-04-05T05:28:27.170Z,99.99
2019-04-05T05:29:27.421Z,99.99
2019-04-05T05:30:27.147Z,99.99
2019-04-05T05:31:27.385Z,99.99
2019-04-05T05:32:27.138Z,99.99
2019-04-05T05:33:27.131Z,99.99
2019-04-05T05:34:27.115Z,99.99
2019-04-05T05:35:27.114Z,99.99
2019-04-05T05:36:27.348Z,99.99
2019-04-05T05:37:27.342Z,99.99
2019-04-05T05:38:27.333Z,99.99
2019-04-05T05:39:27.326Z,99.99
2019-04-05T05:40:37.515Z,99.99
2019-04-05T05:41:27.314Z,99.99
2019-04-05T05:42:27.056Z,99.99
2019-04-05T05:43:27.296Z,99.99
2019-04-05T05:44:27.288Z,99.99
2019-04-05T05:45:27.042Z,99.99
2019-04-05T05:46:27.320Z,99.99
2019-04-05T05:47:27.271Z,99.99
2019-04-05T05:48:27.257Z,99.99
2019-04-05T05:49:27.310Z,99.99
2019-04-05T05:50:27.251Z,99.99
2019-04-05T05:51:27.235Z,99.99
2019-04-05T05:52:27.234Z,99.99
2019-04-05T05:53:27.223Z,99.99
2019-04-05T05:54:27.229Z,99.99
2019-04-05T05:55:29.898Z,99.99
2019-04-05T05:56:27.198Z,99.99
2019-04-05T05:57:27.219Z,99.99
2019-04-05T05:58:28.805Z,99.99
2019-04-05T05:59:27.692Z,99.99
2019-04-05T06:00:30.140Z,99.99
2019-04-05T06:01:27.160Z,99.99
2019-04-05T06:02:27.155Z,99.99
2019-04-05T06:03:27.143Z,99.99
2019-04-05T06:04:27.135Z,99.99
2019-04-05T06:05:27.135Z,99.99
2019-04-05T06:06:27.123Z,99.99
2019-04-05T06:07:27.123Z,99.99
2019-04-05T06:08:29.152Z,99.99
2019-04-05T06:09:27.111Z,99.99
2019-04-05T06:10:27.101Z,99.99
2019-04-05T06:11:27.088Z,99.64
2019-04-05T06:12:27.084Z,99.54
2019-04-05T06:13:27.126Z,99.92
2019-04-05T06:14:27.067Z,99.99
2019-04-05T06:15:26.810Z,99.92
2019-04-05T06:16:26.807Z,99.99
2019-04-05T06:17:27.044Z,99.35
2019-04-05T06:18:26.810Z,98.69
2019-04-05T06:19:26.781Z,98.69
2019-04-05T06:20:27.053Z,98.31
2019-04-05T06:21:27.028Z,98.21
2019-04-05T06:22:27.008Z,97.17
2019-04-05T06:23:35.965Z,97.45
2019-04-05T06:24:27.004Z,98.21
2019-04-05T06:25:26.994Z,98.02
2019-04-05T06:26:26.732Z,97.17
2019-04-05T06:27:26.727Z,97.36
2019-04-05T06:28:26.975Z,96.69
2019-04-05T06:29:26.957Z,96.79
2019-04-05T06:30:28.689Z,97.45
2019-04-05T06:31:26.946Z,97.17
2019-04-05T06:32:26.953Z,97.27
2019-04-05T06:33:35.782Z,97.74
2019-04-05T06:34:26.928Z,97.07
2019-04-05T06:35:26.918Z,96.41
2019-04-05T06:36:26.912Z,96.79
2019-04-05T06:37:26.657Z,96.31
2019-04-05T06:38:26.897Z,96.22
2019-04-05T06:39:26.925Z,94.98
2019-04-05T06:40:39.642Z,94.6
2019-04-05T06:41:26.888Z,95.17
2019-04-05T06:42:26.873Z,94.98
2019-04-05T06:43:26.914Z,94.6
2019-04-05T06:44:28.040Z,94.98
2019-04-05T06:45:26.857Z,95.46
2019-04-05T06:46:26.846Z,95.27
2019-04-05T06:47:26.846Z,95.65
2019-04-05T06:48:29.239Z,94.79
2019-04-05T06:49:26.829Z,94.7
2019-04-05T06:50:26.595Z,94.79
2019-04-05T06:51:26.830Z,94.7
2019-04-05T06:52:26.556Z,95.75
2019-04-05T06:53:26.798Z,94.51
2019-04-05T06:54:26.546Z,94.6
2019-04-05T06:55:26.785Z,95.36
2019-04-05T06:56:26.535Z,95.65
2019-04-05T06:57:26.782Z,96.31
2019-04-05T06:58:31.565Z,95.94
2019-04-05T06:59:26.768Z,95.75
2019-04-05T07:00:26.543Z,95.75
2019-04-05T07:01:26.743Z,95.94
2019-04-05T07:02:26.739Z,96.03
2019-04-05T07:03:26.488Z,96.31
2019-04-05T07:04:26.478Z,96.79
2019-04-05T07:05:26.465Z,97.07
2019-04-05T07:06:26.708Z,98.12
2019-04-05T07:07:26.714Z,98.02
2019-04-05T07:08:26.459Z,98.59
2019-04-05T07:09:26.448Z,98.4
2019-04-05T07:10:26.430Z,98.69
2019-04-05T07:11:26.677Z,98.21
2019-04-05T07:12:26.680Z,98.21
2019-04-05T07:13:29.803Z,98.02
2019-04-05T07:14:26.402Z,98.31
2019-04-05T07:15:26.408Z,97.45
2019-04-05T07:16:26.387Z,96.79
2019-04-05T07:17:26.636Z,96.6
2019-04-05T07:18:36.607Z,95.55
2019-04-05T07:19:26.372Z,95.75
2019-04-05T07:20:26.614Z,95.94
2019-04-05T07:21:26.608Z,96.31
2019-04-05T07:22:40.550Z,96.5
2019-04-05T07:23:26.601Z,96.6
2019-04-05T07:24:26.581Z,96.98
2019-04-05T07:25:29.184Z,96.88
2019-04-05T07:26:26.569Z,96.41
2019-04-05T07:27:26.569Z,96.69
2019-04-05T07:28:27.703Z,96.6
2019-04-05T07:29:26.306Z,96.88
2019-04-05T07:30:28.799Z,96.41
2019-04-05T07:31:26.605Z,96.98
2019-04-05T07:32:26.536Z,96.5
2019-04-05T07:33:26.532Z,96.6
2019-04-05T07:34:26.508Z,97.45
2019-04-05T07:35:35.931Z,97.27
2019-04-05T07:36:26.249Z,96.6
2019-04-05T07:37:28.646Z,96.41
2019-04-05T07:38:26.244Z,95.79
2019-04-05T07:39:26.474Z,95.03
2019-04-05T07:40:26.249Z,95.03
2019-04-05T07:41:26.212Z,94.84
2019-04-05T07:42:26.472Z,94.74
2019-04-05T07:43:26.212Z,94.08
2019-04-05T07:44:26.447Z,94.18
2019-04-05T07:45:26.442Z,93.99
2019-04-05T07:46:26.437Z,94.18
2019-04-05T07:47:26.426Z,95.12
2019-04-05T07:48:26.424Z,94.84
2019-04-05T07:49:26.428Z,94.37
2019-04-05T07:50:26.430Z,94.27
2019-04-05T07:51:26.212Z,94.18
2019-04-05T07:52:26.702Z,93.99
2019-04-05T07:53:26.398Z,93.41
2019-04-05T07:54:26.133Z,93.32
2019-04-05T07:55:26.124Z,93.04
2019-04-05T07:56:26.125Z,92.03
2019-04-05T07:57:26.369Z,91.37
2019-04-05T07:58:26.449Z,90.99
2019-04-05T07:59:26.114Z,89.66
2019-04-05T08:00:26.345Z,89.85
2019-04-05T08:01:26.345Z,89.75
2019-04-05T08:02:26.091Z,90.52
2019-04-05T08:03:26.326Z,90.23
2019-04-05T08:04:26.322Z,89.66
2019-04-05T08:05:26.070Z,89.66
2019-04-05T08:06:26.062Z,90.8
2019-04-05T08:07:26.324Z,90.42
2019-04-05T08:08:26.057Z,90.52
2019-04-05T08:09:26.290Z,90.61
2019-04-05T08:10:26.049Z,90.8
2019-04-05T08:11:26.092Z,90.61
2019-04-05T08:12:26.034Z,90.42
2019-04-05T08:13:26.022Z,89.56
2019-04-05T08:14:26.040Z,88.9
2019-04-05T08:15:26.255Z,88.9
2019-04-05T08:16:26.252Z,90.04
2019-04-05T08:17:25.999Z,90.61
2019-04-05T08:18:26.240Z,91.47
2019-04-05T08:19:25.997Z,91.23
2019-04-05T08:20:27.777Z,91.99
2019-04-05T08:21:26.222Z,91.52
2019-04-05T08:22:26.226Z,91.85
2019-04-05T08:23:26.206Z,91.28
2019-04-05T08:24:26.207Z,90.8
2019-04-05T08:25:26.196Z,90.8
2019-04-05T08:26:26.217Z,90.7
2019-04-05T08:27:26.188Z,90.89
2019-04-05T08:28:26.180Z,90.8
2019-04-05T08:29:26.171Z,90.52
2019-04-05T08:30:26.176Z,90.8
2019-04-05T08:31:26.164Z,90.8
2019-04-05T08:32:26.166Z,90.14
2019-04-05T08:33:26.156Z,90.8
2019-04-05T08:34:26.149Z,90.61
2019-04-05T08:35:25.892Z,91.18
2019-04-05T08:36:26.133Z,90.99
2019-04-05T08:37:25.904Z,90.99
2019-04-05T08:38:25.880Z,90.89
2019-04-05T08:39:26.121Z,90.42
2019-04-05T08:40:26.126Z,90.52
2019-04-05T08:41:26.144Z,89.94
2019-04-05T08:42:26.111Z,89.47
2019-04-05T08:43:25.852Z,89.94
2019-04-05T08:44:26.095Z,89.66
2019-04-05T08:45:25.850Z,90.04
2019-04-05T08:46:26.077Z,90.04
2019-04-05T08:47:25.825Z,89
2019-04-05T08:48:26.285Z,87.85
2019-04-05T08:49:26.068Z,87.66
2019-04-05T08:50:25.814Z,87.66
2019-04-05T08:51:25.820Z,87.66
2019-04-05T08:52:27.078Z,87.47
2019-04-05T08:53:25.790Z,88.13
2019-04-05T08:54:36.821Z,87.95
2019-04-05T08:55:26.063Z,87.76
2019-04-05T08:56:26.048Z,88.13
2019-04-05T08:57:26.017Z,88.23
2019-04-05T08:58:35.692Z,87.85
2019-04-05T08:59:25.999Z,87.85
2019-04-05T09:00:25.997Z,87.95
2019-04-05T09:01:26.000Z,88.23
2019-04-05T09:02:26.000Z,88.42
2019-04-05T09:03:25.757Z,88.23
2019-04-05T09:04:26.006Z,89
2019-04-05T09:05:25.964Z,88.9
2019-04-05T09:06:25.966Z,88.13
2019-04-05T09:07:25.958Z,88.28
2019-04-05T09:08:25.716Z,87.9
2019-04-05T09:09:25.953Z,87.04
2019-04-05T09:10:25.949Z,86.18
2019-04-05T09:11:25.940Z,86.18
2019-04-05T09:12:25.941Z,85.99
2019-04-05T09:13:25.680Z,86.38
2019-04-05T09:14:25.932Z,85.52
2019-04-05T09:15:25.912Z,85.14
2019-04-05T09:16:25.922Z,84.56
2019-04-05T09:17:25.901Z,84.42
2019-04-05T09:18:25.903Z,83.28
2019-04-05T09:19:26.599Z,82.8
2019-04-05T09:20:25.894Z,82.51
2019-04-05T09:21:25.891Z,82.51
2019-04-05T09:22:25.640Z,82.8
2019-04-05T09:23:25.886Z,82.32
2019-04-05T09:24:25.638Z,82.8
2019-04-05T09:25:25.623Z,83.62
2019-04-05T09:26:25.868Z,83.56
2019-04-05T09:27:25.856Z,82.42
2019-04-05T09:28:25.857Z,81.47
2019-04-05T09:29:25.849Z,81.47
2019-04-05T09:30:25.844Z,79.28
2019-04-05T09:31:25.914Z,79.47
2019-04-05T09:32:25.840Z,79.75
2019-04-05T09:33:25.587Z,79.03
2019-04-05T09:34:25.838Z,78.08
2019-04-05T09:35:25.834Z,77.8
2019-04-05T09:36:25.830Z,78.56
2019-04-05T09:37:25.581Z,78.08
2019-04-05T09:38:25.821Z,78.75
2019-04-05T09:39:25.609Z,78.75
2019-04-05T09:40:25.561Z,79.6
2019-04-05T09:41:25.801Z,79.46
2019-04-05T09:42:25.807Z,78.78
2019-04-05T09:43:25.807Z,77.07
2019-04-05T09:44:26.370Z,74.35
2019-04-05T09:45:25.808Z,75.3
2019-04-05T09:46:25.841Z,75.59
2019-04-05T09:47:25.799Z,75.2
2019-04-05T09:48:26.098Z,75.3
2019-04-05T09:49:38.475Z,74.1
2019-04-05T09:50:25.799Z,73.14
2019-04-05T09:51:25.551Z,72.48
2019-04-05T09:52:25.792Z,72.19
2019-04-05T09:53:27.376Z,72.53
2019-04-05T09:54:25.808Z,73.68
2019-04-05T09:55:25.771Z,74.63
2019-04-05T09:56:25.777Z,75.36
2019-04-05T09:57:25.767Z,76.4
2019-04-05T09:58:25.511Z,77.26
2019-04-05T09:59:25.513Z,77.17
2019-04-05T10:00:25.793Z,77.17
2019-04-05T10:01:25.758Z,77.36
2019-04-05T10:02:25.504Z,77.01
2019-04-05T10:03:25.824Z,75.59
2019-04-05T10:04:25.789Z,74.44
2019-04-05T10:05:25.762Z,73.11
2019-04-05T10:06:25.753Z,72.63
2019-04-05T10:07:25.743Z,74.16
2019-04-05T10:08:25.766Z,74.88
2019-04-05T10:09:25.741Z,74.88
2019-04-05T10:10:25.791Z,75.45
2019-04-05T10:11:25.729Z,75.55
2019-04-05T10:12:25.736Z,75.2
2019-04-05T10:13:25.742Z,76.06
2019-04-05T10:14:25.477Z,76.31
2019-04-05T10:15:25.503Z,76.54
2019-04-05T10:16:25.479Z,75.2
2019-04-05T10:17:25.730Z,74.06
2019-04-05T10:18:25.710Z,73.68
2019-04-05T10:19:25.504Z,74.44
2019-04-05T10:20:25.719Z,75.11
2019-04-05T10:21:25.483Z,77.11
2019-04-05T10:22:25.722Z,77.74
2019-04-05T10:23:25.450Z,78.41
2019-04-05T10:24:25.460Z,78.69
2019-04-05T10:25:25.706Z,77.45
2019-04-05T10:26:25.699Z,77.17
2019-04-05T10:27:25.445Z,77.74
2019-04-05T10:28:25.459Z,77.83
2019-04-05T10:29:25.701Z,78.12
2019-04-05T10:30:25.698Z,78.37
2019-04-05T10:31:25.697Z,78.94
2019-04-05T10:32:25.694Z,79.03
2019-04-05T10:33:25.441Z,79.17
2019-04-05T10:34:25.672Z,79.36
2019-04-05T10:35:25.671Z,78.22
2019-04-05T10:36:25.668Z,77.59
2019-04-05T10:37:25.425Z,75.68
2019-04-05T10:38:25.427Z,75.15
2019-04-05T10:39:25.686Z,73.72
2019-04-05T10:40:25.660Z,73.08
2019-04-05T10:41:25.676Z,72.03
2019-04-05T10:42:25.414Z,70.73
2019-04-05T10:43:25.652Z,69.78
2019-04-05T10:44:25.651Z,69.4
2019-04-05T10:45:25.643Z,69.97
2019-04-05T10:46:25.401Z,69.59
2019-04-05T10:47:25.425Z,68.92
2019-04-05T10:48:25.398Z,69.59
2019-04-05T10:49:25.642Z,69.49
2019-04-05T10:50:25.396Z,69.02
2019-04-05T10:51:25.636Z,69.02
2019-04-05T10:52:25.635Z,69.11
2019-04-05T10:53:26.437Z,68.16
2019-04-05T10:54:25.632Z,68.26
2019-04-05T10:55:25.632Z,68.63
2019-04-05T10:56:25.648Z,68.16
2019-04-05T10:57:25.654Z,67.97
2019-04-05T10:58:25.641Z,68.06
2019-04-05T10:59:25.435Z,67.52
2019-04-05T11:00:25.634Z,67.33
2019-04-05T11:01:25.377Z,66.95
2019-04-05T11:02:25.617Z,67.24
2019-04-05T11:03:25.380Z,66.95
2019-04-05T11:04:25.383Z,67.33
2019-04-05T11:05:25.371Z,66.66
2019-04-05T11:06:25.618Z,67.05
2019-04-05T11:07:25.362Z,66.19
2019-04-05T11:08:25.620Z,66.56
2019-04-05T11:09:25.633Z,67.49
2019-04-05T11:10:25.359Z,68.35
2019-04-05T11:11:25.364Z,67.93
2019-04-05T11:12:25.623Z,68.06
2019-04-05T11:13:25.619Z,67.49
2019-04-05T11:14:25.357Z,67.87
2019-04-05T11:15:25.598Z,68.06
2019-04-05T11:16:25.603Z,68.35
2019-04-05T11:17:25.356Z,67.87
2019-04-05T11:18:25.353Z,68.06
2019-04-05T11:19:25.606Z,67.68
2019-04-05T11:20:25.621Z,69.68
2019-04-05T11:21:25.586Z,71.08
2019-04-05T11:22:25.592Z,70.42
2019-04-05T11:23:25.603Z,70.7
2019-04-05T11:24:25.585Z,71.84
2019-04-05T11:25:25.594Z,71.72
2019-04-05T11:26:25.584Z,71.52
2019-04-05T11:27:25.586Z,71.91
2019-04-05T11:28:25.581Z,72.09
2019-04-05T11:29:25.339Z,72.57
2019-04-05T11:30:26.977Z,73.05
2019-04-05T11:31:25.574Z,73.14
2019-04-05T11:32:25.586Z,72.86
2019-04-05T11:33:25.320Z,72.57
2019-04-05T11:34:25.581Z,73.81
2019-04-05T11:35:25.314Z,74.1
2019-04-05T11:36:25.379Z,73.91
2019-04-05T11:37:25.331Z,72.71
2019-04-05T11:38:26.631Z,71.81
2019-04-05T11:39:25.575Z,71.75
2019-04-05T11:40:26.648Z,71.46
2019-04-05T11:41:25.308Z,71.56
2019-04-05T11:42:25.549Z,71.18
2019-04-05T11:43:31.071Z,71.18
2019-04-05T11:44:25.389Z,70.61
2019-04-05T11:45:25.541Z,71.37
2019-04-05T11:46:25.307Z,72.89
2019-04-05T11:47:25.537Z,75.62
2019-04-05T11:48:25.542Z,75.62
2019-04-05T11:49:25.534Z,74.57
2019-04-05T11:50:36.772Z,75.24
2019-04-05T11:51:25.534Z,74.1
2019-04-05T11:52:25.543Z,73.24
2019-04-05T11:53:25.534Z,72.96
2019-04-05T11:54:25.526Z,72.67
2019-04-05T11:55:25.525Z,72.38
2019-04-05T11:56:25.521Z,71.91
2019-04-05T11:57:25.274Z,71.56
2019-04-05T11:58:25.275Z,71.56
2019-04-05T11:59:25.525Z,71.23
2019-04-05T12:00:25.525Z,71.84
2019-04-05T12:01:26.122Z,72.57
2019-04-05T12:02:25.521Z,72.67
2019-04-05T12:03:25.535Z,72.19
2019-04-05T12:04:25.273Z,72.48
2019-04-05T12:05:29.012Z,73.24
2019-04-05T12:06:25.510Z,73.62
2019-04-05T12:07:28.814Z,73.62
2019-04-05T12:08:25.506Z,73.91
2019-04-05T12:09:25.507Z,73.33
2019-04-05T12:10:25.505Z,72.96
2019-04-05T12:11:25.250Z,73.05
2019-04-05T12:12:28.038Z,72.38
2019-04-05T12:13:25.232Z,72.57
2019-04-05T12:14:34.436Z,72
2019-04-05T12:15:25.490Z,72.67
2019-04-05T12:16:25.227Z,72.13
2019-04-05T12:17:25.483Z,71.91
2019-04-05T12:18:25.225Z,72.76
2019-04-05T12:19:25.467Z,75.05
2019-04-05T12:20:25.475Z,75.24
2019-04-05T12:21:25.458Z,75.87
2019-04-05T12:22:25.224Z,77.49
2019-04-05T12:23:25.231Z,77.3
2019-04-05T12:24:26.406Z,76.25
2019-04-05T12:25:25.454Z,75.59
2019-04-05T12:26:25.452Z,75.59
2019-04-05T12:27:25.452Z,75.4
2019-04-05T12:28:25.449Z,75.59
2019-04-05T12:29:25.454Z,77.3
2019-04-05T12:30:25.503Z,77.69
2019-04-05T12:31:25.611Z,77.78
2019-04-05T12:32:41.001Z,77.59
2019-04-05T12:33:25.431Z,77.11
2019-04-05T12:34:28.295Z,76.54
2019-04-05T12:35:25.442Z,77.01
2019-04-05T12:36:25.419Z,77.07
2019-04-05T12:37:25.418Z,77.59
2019-04-05T12:38:32.375Z,77.69
2019-04-05T12:39:25.421Z,77.87
2019-04-05T12:40:25.184Z,79.02
2019-04-05T12:41:25.155Z,79.02
2019-04-05T12:42:25.411Z,78.92
2019-04-05T12:43:25.396Z,80.54
2019-04-05T12:44:25.153Z,81.3
2019-04-05T12:45:25.142Z,80.83
2019-04-05T12:46:25.393Z,79.55
2019-04-05T12:47:25.134Z,79.55
2019-04-05T12:48:25.373Z,80.12
2019-04-05T12:49:25.392Z,79.36
2019-04-05T12:50:25.378Z,79.55
2019-04-05T12:51:25.148Z,79.55
2019-04-05T12:52:29.726Z,80.12
2019-04-05T12:53:28.424Z,80.02
2019-04-05T12:54:29.866Z,80.31
2019-04-05T12:55:26.817Z,79.64